createdAt,value
2018-09-08T00:02:03.833Z,16.60
2018-09-08T00:04:32.485Z,16.50
2018-09-08T00:07:06.517Z,16.50
2018-09-08T00:09:35.112Z,16.50
2018-09-08T00:12:03.655Z,16.40
2018-09-08T00:14:32.339Z,16.40
2018-09-08T00:17:06.157Z,16.30
2018-09-08T00:19:40.157Z,16.20
2018-09-08T00:22:13.859Z,16.20
2018-09-08T00:24:47.768Z,16.20
2018-09-08T00:27:20.690Z,16.20
2018-09-08T00:29:50.991Z,16.20
2018-09-08T00:32:20.757Z,16.20
2018-09-08T00:34:49.261Z,16.20
2018-09-08T00:37:18.100Z,16.20
2018-09-08T00:39:51.909Z,16.10
2018-09-08T00:42:20.894Z,16.10
2018-09-08T00:44:49.406Z,16.00
2018-09-08T00:47:18.235Z,16.00
2018-09-08T00:49:46.748Z,15.90
2018-09-08T00:52:15.553Z,15.90
2018-09-08T00:54:44.057Z,15.90
2018-09-08T00:57:12.545Z,15.80
2018-09-08T00:59:41.121Z,15.80
2018-09-08T01:02:09.971Z,15.80
2018-09-08T01:04:38.924Z,15.80
2018-09-08T01:07:11.694Z,15.80
2018-09-08T01:09:40.220Z,15.70
2018-09-08T01:12:09.733Z,15.70
2018-09-08T01:14:39.175Z,15.70
2018-09-08T01:17:07.670Z,15.70
2018-09-08T01:19:36.183Z,15.70
2018-09-08T01:22:04.674Z,15.70
2018-09-08T01:24:33.202Z,15.60
2018-09-08T01:27:01.756Z,15.60
2018-09-08T01:29:30.291Z,15.60
2018-09-08T01:31:59.494Z,15.50
2018-09-08T01:34:28.011Z,15.40
2018-09-08T01:36:56.796Z,15.40
2018-09-08T01:39:25.607Z,15.40
2018-09-08T01:41:54.138Z,15.40
2018-09-08T01:44:23.688Z,15.40
2018-09-08T01:46:52.378Z,15.40
2018-09-08T01:49:21.171Z,15.30
2018-09-08T01:51:49.876Z,15.30
2018-09-08T01:54:18.473Z,15.30
2018-09-08T01:56:47.285Z,15.30
2018-09-08T01:59:16.224Z,15.30
2018-09-08T02:01:44.825Z,15.30
2018-09-08T02:04:13.480Z,15.30
2018-09-08T02:06:42.492Z,15.20
2018-09-08T02:09:11.347Z,15.20
2018-09-08T02:11:39.896Z,15.20
2018-09-08T02:14:08.823Z,15.10
2018-09-08T02:16:37.611Z,15.20
2018-09-08T02:19:06.258Z,15.20
2018-09-08T02:21:34.967Z,15.20
2018-09-08T02:24:03.517Z,15.30
2018-09-08T02:26:32.173Z,15.30
2018-09-08T02:29:00.847Z,15.30
2018-09-08T02:31:29.749Z,15.20
2018-09-08T02:33:58.283Z,15.20
2018-09-08T02:36:26.868Z,15.20
2018-09-08T02:38:56.032Z,15.20
2018-09-08T02:41:24.897Z,15.20
2018-09-08T02:43:53.668Z,15.20
2018-09-08T02:46:22.418Z,15.20
2018-09-08T02:48:51.210Z,15.20
2018-09-08T02:51:18.619Z,15.20
2018-09-08T02:53:46.004Z,15.20
2018-09-08T02:56:13.483Z,15.20
2018-09-08T02:58:40.930Z,15.10
2018-09-08T03:01:08.319Z,15.00
2018-09-08T03:03:35.877Z,15.10
2018-09-08T03:06:03.365Z,15.10
2018-09-08T03:08:30.901Z,15.10
2018-09-08T03:10:58.559Z,15.20
2018-09-08T03:13:26.074Z,15.20
2018-09-08T03:15:53.483Z,15.20
2018-09-08T03:18:21.145Z,15.20
2018-09-08T03:20:48.515Z,15.20
2018-09-08T03:23:15.948Z,15.10
2018-09-08T03:25:43.324Z,15.20
2018-09-08T03:28:10.789Z,15.10
2018-09-08T03:30:38.163Z,15.20
2018-09-08T03:33:05.671Z,15.10
2018-09-08T03:35:34.164Z,15.20
2018-09-08T03:38:01.812Z,15.20
2018-09-08T03:40:29.228Z,15.20
2018-09-08T03:42:56.605Z,15.10
2018-09-08T03:45:23.994Z,15.10
2018-09-08T03:47:51.437Z,15.10
2018-09-08T03:50:18.821Z,15.10
2018-09-08T03:52:46.348Z,15.00
2018-09-08T03:55:13.913Z,15.00
2018-09-08T03:57:41.346Z,15.00
2018-09-08T04:00:08.808Z,15.00
2018-09-08T04:02:37.761Z,15.00
2018-09-08T04:05:06.611Z,15.10
2018-09-08T04:07:35.215Z,15.00
2018-09-08T04:10:04.280Z,15.10
2018-09-08T04:12:32.848Z,15.00
2018-09-08T04:15:01.801Z,15.00
2018-09-08T04:17:30.425Z,15.00
2018-09-08T04:19:59.041Z,15.00
2018-09-08T04:22:33.083Z,15.00
2018-09-08T04:25:02.314Z,15.10
2018-09-08T04:27:30.910Z,15.20
2018-09-08T04:29:59.704Z,15.20
2018-09-08T04:32:28.597Z,15.20
2018-09-08T04:34:57.779Z,15.20
2018-09-08T04:37:26.761Z,15.30
2018-09-08T04:39:55.887Z,15.30
2018-09-08T04:42:24.766Z,15.40
2018-09-08T04:44:54.011Z,15.40
2018-09-08T04:47:22.654Z,15.40
2018-09-08T04:49:51.370Z,15.40
2018-09-08T04:52:20.332Z,15.50
2018-09-08T04:54:49.325Z,15.50
2018-09-08T04:57:18.113Z,15.60
2018-09-08T04:59:46.799Z,15.60
2018-09-08T05:02:15.426Z,15.70
2018-09-08T05:04:44.278Z,15.70
2018-09-08T05:07:13.096Z,15.80
2018-09-08T05:09:41.751Z,15.80
2018-09-08T05:12:10.331Z,15.80
2018-09-08T05:14:38.988Z,15.90
2018-09-08T05:17:07.823Z,15.90
2018-09-08T05:19:36.493Z,15.90
2018-09-08T05:22:05.541Z,15.90
2018-09-08T05:24:34.484Z,15.90
2018-09-08T05:27:03.339Z,15.90
2018-09-08T05:29:32.014Z,15.90
2018-09-08T05:32:00.694Z,15.90
2018-09-08T05:34:29.474Z,15.90
2018-09-08T05:36:58.083Z,15.80
2018-09-08T05:39:26.670Z,15.80
2018-09-08T05:41:55.277Z,15.80
2018-09-08T05:44:23.783Z,15.80
2018-09-08T05:46:52.489Z,15.80
2018-09-08T05:49:21.042Z,15.70
2018-09-08T05:51:49.615Z,15.80
2018-09-08T05:54:18.316Z,15.80
2018-09-08T05:56:46.857Z,15.80
2018-09-08T05:59:15.412Z,15.80
2018-09-08T06:01:43.949Z,15.90
2018-09-08T06:04:12.660Z,15.90
2018-09-08T06:06:41.238Z,16.00
2018-09-08T06:09:10.661Z,16.00
2018-09-08T06:11:39.841Z,16.10
2018-09-08T06:14:08.432Z,16.10
2018-09-08T06:16:37.238Z,16.10
2018-09-08T06:19:06.368Z,16.20
2018-09-08T06:21:35.075Z,16.30
2018-09-08T06:24:03.826Z,16.30
2018-09-08T06:26:32.399Z,16.40
2018-09-08T06:29:01.184Z,16.40
2018-09-08T06:31:30.016Z,16.50
2018-09-08T06:33:58.699Z,16.50
2018-09-08T06:36:27.235Z,16.60
2018-09-08T06:38:55.895Z,16.70
2018-09-08T06:41:24.490Z,16.80
2018-09-08T06:43:53.155Z,16.80
2018-09-08T06:46:21.957Z,16.90
2018-09-08T06:48:50.585Z,16.90
2018-09-08T06:51:19.500Z,17.00
2018-09-08T06:53:48.707Z,17.10
2018-09-08T06:56:17.395Z,17.10
2018-09-08T06:58:46.125Z,17.20
2018-09-08T07:01:15.181Z,17.30
2018-09-08T07:03:44.211Z,17.30
2018-09-08T07:06:12.958Z,17.40
2018-09-08T07:08:41.531Z,17.50
2018-09-08T07:11:10.319Z,17.60
2018-09-08T07:13:38.851Z,17.70
2018-09-08T07:16:07.838Z,17.80
2018-09-08T07:18:36.533Z,17.90
2018-09-08T07:21:05.191Z,17.90
2018-09-08T07:23:34.054Z,17.90
2018-09-08T07:26:03.105Z,17.90
2018-09-08T07:28:32.355Z,17.90
2018-09-08T07:31:01.194Z,17.90
2018-09-08T07:33:30.432Z,18.00
2018-09-08T07:35:59.092Z,18.10
2018-09-08T07:38:27.871Z,18.20
2018-09-08T07:40:56.401Z,18.20
2018-09-08T07:43:25.284Z,18.30
2018-09-08T07:45:54.146Z,18.30
2018-09-08T07:48:23.110Z,18.40
2018-09-08T07:50:51.851Z,18.40
2018-09-08T07:53:20.864Z,18.40
2018-09-08T07:55:49.904Z,18.50
2018-09-08T07:58:18.660Z,18.50
2018-09-08T08:00:47.441Z,18.60
2018-09-08T08:03:16.380Z,18.60
2018-09-08T08:05:45.304Z,18.60
2018-09-08T08:08:13.847Z,18.60
2018-09-08T08:10:42.553Z,18.70
2018-09-08T08:13:11.438Z,18.70
2018-09-08T08:15:40.162Z,18.70
2018-09-08T08:18:08.706Z,18.80
2018-09-08T08:20:37.350Z,18.80
2018-09-08T08:23:06.397Z,18.70
2018-09-08T08:25:35.052Z,18.80
2018-09-08T08:28:03.861Z,18.80
2018-09-08T08:30:32.851Z,18.90
2018-09-08T08:33:01.615Z,18.90
2018-09-08T08:35:30.444Z,18.80
2018-09-08T08:37:59.017Z,18.80
2018-09-08T08:40:27.624Z,18.80
2018-09-08T08:42:56.270Z,18.90
2018-09-08T08:45:24.964Z,18.90
2018-09-08T08:47:53.519Z,19.00
2018-09-08T08:51:34.391Z,18.90
2018-09-08T08:54:17.703Z,19.00
2018-09-08T08:56:46.658Z,19.00
2018-09-08T08:59:15.246Z,19.10
2018-09-08T09:01:44.352Z,19.10
2018-09-08T09:04:13.748Z,19.10
2018-09-08T09:06:42.457Z,19.20
2018-09-08T09:09:14.067Z,19.20
2018-09-08T09:11:43.837Z,19.30
2018-09-08T09:14:13.331Z,19.40
2018-09-08T09:16:42.374Z,19.40
2018-09-08T09:19:34.718Z,19.50
2018-09-08T09:22:15.882Z,19.60
2018-09-08T09:25:06.822Z,19.80
2018-09-08T09:27:41.247Z,19.90
2018-09-08T09:30:10.608Z,20.10
2018-09-08T09:32:39.430Z,20.20
2018-09-08T09:35:10.614Z,20.40
2018-09-08T09:37:39.384Z,20.70
2018-09-08T09:40:09.149Z,21.00
2018-09-08T09:42:38.103Z,21.40
2018-09-08T09:45:07.698Z,21.70
2018-09-08T09:47:36.369Z,22.10
2018-09-08T09:50:05.811Z,22.20
2018-09-08T09:52:34.467Z,22.50
2018-09-08T09:55:03.238Z,22.60
2018-09-08T09:57:31.798Z,22.80
2018-09-08T10:00:00.346Z,22.80
2018-09-08T10:02:39.247Z,22.80
2018-09-08T10:05:10.835Z,22.90
2018-09-08T10:07:39.526Z,23.00
2018-09-08T10:10:09.835Z,23.00
2018-09-08T10:12:39.014Z,22.90
2018-09-08T10:15:08.564Z,22.70
2018-09-08T10:17:37.962Z,22.70
2018-09-08T10:20:08.927Z,22.50
2018-09-08T10:22:37.856Z,22.40
2018-09-08T10:25:08.288Z,22.50
2018-09-08T10:27:37.090Z,22.40
2018-09-08T10:30:06.351Z,22.30
2018-09-08T10:32:34.962Z,22.20
2018-09-08T10:35:03.840Z,22.10
2018-09-08T10:37:32.599Z,21.90
2018-09-08T10:40:01.385Z,21.80
2018-09-08T10:42:30.618Z,21.70
2018-09-08T10:44:59.473Z,21.50
2018-09-08T10:47:28.429Z,21.50
2018-09-08T10:49:57.496Z,21.40
2018-09-08T10:52:35.713Z,21.50
2018-09-08T10:55:04.413Z,21.50
2018-09-08T10:57:33.254Z,21.50
2018-09-08T11:00:02.888Z,21.60
2018-09-08T11:02:32.027Z,21.60
2018-09-08T11:05:01.321Z,21.70
2018-09-08T11:07:30.958Z,21.50
2018-09-08T11:09:59.714Z,21.50
2018-09-08T11:12:28.567Z,21.50
2018-09-08T11:14:57.478Z,21.50
2018-09-08T11:17:26.091Z,21.50
2018-09-08T11:19:54.870Z,21.50
2018-09-08T11:22:23.808Z,21.60
2018-09-08T11:24:52.406Z,21.60
2018-09-08T11:27:21.157Z,21.60
2018-09-08T11:29:50.049Z,21.70
2018-09-08T11:32:18.718Z,21.70
2018-09-08T11:34:47.535Z,21.80
2018-09-08T11:37:16.455Z,21.90
2018-09-08T11:39:46.050Z,21.70
2018-09-08T11:42:14.875Z,21.80
2018-09-08T11:44:43.827Z,21.80
2018-09-08T11:47:12.679Z,21.70
2018-09-08T11:49:41.766Z,21.70
2018-09-08T11:52:10.476Z,21.70
2018-09-08T11:54:40.043Z,21.60
2018-09-08T11:57:08.966Z,21.60
2018-09-08T11:59:37.766Z,21.70
2018-09-08T12:02:06.896Z,21.60
2018-09-08T12:04:35.642Z,21.60
2018-09-08T12:07:04.554Z,21.60
2018-09-08T12:09:33.319Z,21.70
2018-09-08T12:12:02.085Z,21.70
2018-09-08T12:14:30.898Z,21.80
2018-09-08T12:16:59.579Z,21.90
2018-09-08T12:19:28.242Z,21.90
2018-09-08T12:21:56.796Z,22.00
2018-09-08T12:24:26.568Z,22.10
2018-09-08T12:26:56.375Z,22.30
2018-09-08T12:29:24.911Z,22.30
2018-09-08T12:31:53.650Z,22.40
2018-09-08T12:34:22.522Z,22.60
2018-09-08T12:36:51.078Z,22.70
2018-09-08T12:39:19.923Z,22.80
2018-09-08T12:41:48.567Z,22.80
2018-09-08T12:44:17.100Z,22.90
2018-09-08T12:46:45.864Z,22.70
2018-09-08T12:49:14.383Z,22.80
2018-09-08T12:51:43.242Z,22.80
2018-09-08T12:54:12.130Z,22.90
2018-09-08T12:56:40.725Z,22.90
2018-09-08T12:59:09.270Z,23.00
2018-09-08T13:01:37.975Z,23.00
2018-09-08T13:04:06.867Z,22.90
2018-09-08T13:06:35.466Z,22.90
2018-09-08T13:09:04.731Z,22.90
2018-09-08T13:11:33.540Z,22.90
2018-09-08T13:14:02.186Z,22.90
2018-09-08T13:16:31.914Z,22.70
2018-09-08T13:19:00.483Z,22.70
2018-09-08T13:21:29.060Z,22.80
2018-09-08T13:23:57.906Z,22.70
2018-09-08T13:26:26.824Z,22.60
2018-09-08T13:28:55.539Z,22.60
2018-09-08T13:31:24.088Z,22.60
2018-09-08T13:33:52.989Z,22.70
2018-09-08T13:36:21.739Z,22.70
2018-09-08T13:38:50.358Z,22.60
2018-09-08T13:41:18.870Z,22.60
2018-09-08T13:43:47.742Z,22.60
2018-09-08T13:46:16.474Z,22.60
2018-09-08T13:48:45.301Z,22.70
2018-09-08T13:51:14.150Z,22.70
2018-09-08T13:53:42.935Z,22.70
2018-09-08T13:56:11.672Z,22.70
2018-09-08T13:58:40.577Z,22.80
2018-09-08T14:01:09.164Z,22.70
2018-09-08T14:03:37.889Z,22.60
2018-09-08T14:06:06.830Z,22.70
2018-09-08T14:08:35.438Z,22.70
2018-09-08T14:11:04.622Z,22.70
2018-09-08T14:13:33.444Z,22.70
2018-09-08T14:16:02.303Z,22.80
2018-09-08T14:18:31.123Z,22.70
2018-09-08T14:21:00.043Z,22.70
2018-09-08T14:23:28.671Z,22.50
2018-09-08T14:25:58.122Z,22.30
2018-09-08T14:28:26.757Z,22.20
2018-09-08T14:30:55.351Z,22.10
2018-09-08T14:33:24.025Z,22.10
2018-09-08T14:35:52.843Z,21.90
2018-09-08T14:38:21.798Z,21.80
2018-09-08T14:40:51.200Z,21.90
2018-09-08T14:43:20.077Z,21.80
2018-09-08T14:45:50.457Z,21.80
2018-09-08T14:48:19.379Z,21.90
2018-09-08T14:50:48.262Z,21.80
2018-09-08T14:53:17.249Z,21.90
2018-09-08T14:55:45.876Z,21.90
2018-09-08T14:58:14.675Z,21.90
2018-09-08T15:00:43.493Z,21.70
2018-09-08T15:03:13.293Z,21.60
2018-09-08T15:05:42.248Z,21.50
2018-09-08T15:08:10.803Z,21.30
2018-09-08T15:10:39.611Z,21.20
2018-09-08T15:13:08.665Z,21.10
2018-09-08T15:15:37.322Z,21.00
2018-09-08T15:18:06.240Z,20.90
2018-09-08T15:20:34.793Z,20.90
2018-09-08T15:23:03.392Z,20.90
2018-09-08T15:25:32.149Z,20.80
2018-09-08T15:28:01.118Z,20.70
2018-09-08T15:30:30.103Z,20.70
2018-09-08T15:32:59.029Z,20.70
2018-09-08T15:35:27.562Z,20.60
2018-09-08T15:37:57.080Z,20.70
2018-09-08T15:40:26.241Z,20.60
2018-09-08T15:42:55.047Z,20.50
2018-09-08T15:45:23.659Z,20.40
2018-09-08T15:47:52.386Z,20.40
2018-09-08T15:50:21.335Z,20.40
2018-09-08T15:52:50.009Z,20.40
2018-09-08T15:55:18.718Z,20.30
2018-09-08T15:57:47.915Z,20.20
2018-09-08T16:00:16.476Z,20.10
2018-09-08T16:02:44.993Z,20.10
2018-09-08T16:05:13.718Z,20.10
2018-09-08T16:07:43.225Z,19.90
2018-09-08T16:10:12.318Z,19.90
2018-09-08T16:12:43.464Z,19.90
2018-09-08T16:15:12.924Z,20.00
2018-09-08T16:17:42.104Z,20.00
2018-09-08T16:23:39.688Z,20.00
2018-09-08T16:26:10.255Z,20.00
2018-09-08T16:28:44.474Z,20.00
2018-09-08T16:31:15.582Z,19.90
2018-09-08T16:33:51.187Z,19.90
2018-09-08T16:36:19.884Z,19.90
2018-09-08T16:38:48.592Z,19.90
2018-09-08T16:41:19.120Z,19.80
2018-09-08T16:43:48.274Z,19.80
2018-09-08T16:46:16.931Z,19.80
2018-09-08T16:48:45.526Z,19.80
2018-09-08T16:51:14.337Z,19.80
2018-09-08T16:53:42.919Z,19.80
2018-09-08T16:56:11.566Z,19.80
2018-09-08T16:58:41.407Z,19.80
2018-09-08T17:01:13.145Z,19.70
2018-09-08T17:03:43.386Z,19.70
2018-09-08T17:06:12.501Z,19.70
2018-09-08T17:08:41.149Z,19.70
2018-09-08T17:11:09.852Z,19.60
2018-09-08T17:13:38.619Z,19.50
2018-09-08T17:16:07.473Z,19.50
2018-09-08T17:18:36.320Z,19.50
2018-09-08T17:21:05.331Z,19.40
2018-09-08T17:23:33.988Z,19.40
2018-09-08T17:26:02.573Z,19.30
2018-09-08T17:28:31.233Z,19.30
2018-09-08T17:30:59.787Z,19.30
2018-09-08T17:33:28.584Z,19.20
2018-09-08T17:35:57.263Z,19.20
2018-09-08T17:38:25.752Z,19.10
2018-09-08T17:40:54.371Z,19.10
2018-09-08T17:43:22.906Z,19.00
2018-09-08T17:45:51.561Z,19.00
2018-09-08T17:48:20.448Z,18.90
2018-09-08T17:50:49.350Z,18.90
2018-09-08T17:53:17.900Z,18.80
2018-09-08T17:55:46.643Z,18.80
2018-09-08T17:58:15.227Z,18.70
2018-09-08T18:00:43.830Z,18.70
2018-09-08T18:03:12.531Z,18.60
2018-09-08T18:05:41.746Z,18.60
2018-09-08T18:08:10.346Z,18.50
2018-09-08T18:10:38.938Z,18.50
2018-09-08T18:13:07.680Z,18.40
2018-09-08T18:15:36.300Z,18.40
2018-09-08T18:18:04.906Z,18.30
2018-09-08T18:20:34.055Z,18.30
2018-09-08T18:23:02.992Z,18.30
2018-09-08T18:25:31.809Z,18.20
2018-09-08T18:28:00.383Z,18.20
2018-09-08T18:30:29.126Z,18.10
2018-09-08T18:32:58.026Z,18.00
2018-09-08T18:35:26.589Z,18.00
2018-09-08T18:37:55.660Z,18.00
2018-09-08T18:40:24.349Z,18.00
2018-09-08T18:42:53.173Z,18.00
2018-09-08T18:45:22.472Z,17.90
2018-09-08T18:47:51.171Z,17.90
2018-09-08T18:50:21.376Z,17.90
2018-09-08T18:52:50.267Z,17.80
2018-09-08T18:55:18.908Z,17.80
2018-09-08T18:57:47.828Z,17.80
2018-09-08T19:00:16.571Z,17.70
2018-09-08T19:02:46.644Z,17.70
2018-09-08T19:05:15.388Z,17.70
2018-09-08T19:07:43.987Z,17.60
2018-09-08T19:10:13.118Z,17.60
2018-09-08T19:12:41.903Z,17.50
2018-09-08T19:15:38.785Z,17.50
2018-09-08T19:18:08.004Z,17.50
2018-09-08T19:20:37.475Z,17.40
2018-09-08T19:23:06.749Z,17.40
2018-09-08T19:25:36.074Z,17.40
2018-09-08T19:28:05.798Z,17.30
2018-09-08T19:30:34.695Z,17.30
2018-09-08T19:33:03.470Z,17.30
2018-09-08T19:35:39.521Z,17.20
2018-09-08T19:38:08.415Z,17.20
2018-09-08T19:40:42.484Z,17.20
2018-09-08T19:43:11.037Z,17.20
2018-09-08T19:45:39.789Z,17.20
2018-09-08T19:48:10.312Z,17.20
2018-09-08T19:50:39.004Z,17.10
2018-09-08T19:53:12.899Z,17.10
2018-09-08T19:55:41.755Z,17.00
2018-09-08T19:58:15.610Z,17.00
2018-09-08T20:00:45.074Z,17.00
2018-09-08T20:03:13.931Z,17.00
2018-09-08T20:05:42.777Z,16.90
2018-09-08T20:08:11.590Z,16.90
2018-09-08T20:10:40.558Z,16.90
2018-09-08T20:13:09.238Z,16.90
2018-09-08T20:15:37.804Z,16.80
2018-09-08T20:18:06.451Z,16.80
2018-09-08T20:20:35.116Z,16.70
2018-09-08T20:23:03.698Z,16.80
2018-09-08T20:25:32.466Z,16.80
2018-09-08T20:28:01.050Z,16.80
2018-09-08T20:30:29.757Z,16.70
2018-09-08T20:32:58.356Z,16.60
2018-09-08T20:35:27.122Z,16.60
2018-09-08T20:37:55.966Z,16.60
2018-09-08T20:40:24.543Z,16.60
2018-09-08T20:42:53.468Z,16.50
2018-09-08T20:45:22.023Z,16.60
2018-09-08T20:47:50.762Z,16.50
2018-09-08T20:50:19.471Z,16.50
2018-09-08T20:52:48.291Z,16.50
2018-09-08T20:55:17.123Z,16.40
2018-09-08T20:57:45.834Z,16.40
2018-09-08T21:00:14.387Z,16.40
2018-09-08T21:02:42.973Z,16.40
2018-09-08T21:05:11.714Z,16.40
2018-09-08T21:07:40.854Z,16.40
2018-09-08T21:10:09.627Z,16.40
2018-09-08T21:16:00.863Z,16.20
2018-09-08T21:18:29.658Z,16.10
2018-09-08T21:20:58.254Z,16.00
2018-09-08T21:23:27.313Z,16.00
2018-09-08T21:25:56.422Z,16.00
2018-09-08T21:28:24.924Z,16.00
2018-09-08T21:30:53.542Z,16.00
2018-09-08T21:33:22.239Z,15.90
2018-09-08T21:35:51.915Z,15.90
2018-09-08T21:38:20.781Z,15.90
2018-09-08T21:40:49.266Z,15.90
2018-09-08T21:43:17.862Z,15.90
2018-09-08T21:45:46.392Z,15.90
2018-09-08T21:48:14.901Z,16.00
2018-09-08T21:50:43.580Z,15.90
2018-09-08T21:53:12.375Z,15.90
2018-09-08T21:55:41.007Z,15.90
2018-09-08T21:58:09.558Z,15.90
2018-09-08T22:00:38.366Z,15.80
2018-09-08T22:03:06.952Z,15.80
2018-09-08T22:05:35.646Z,15.70
2018-09-08T22:08:04.491Z,15.70
2018-09-08T22:10:33.702Z,15.60
2018-09-08T22:13:02.481Z,15.60
2018-09-08T22:15:31.158Z,15.60
2018-09-08T22:17:59.923Z,15.60
2018-09-08T22:20:28.550Z,15.60
2018-09-08T22:22:57.057Z,15.50
2018-09-08T22:25:25.686Z,15.50
2018-09-08T22:27:54.474Z,15.50
2018-09-08T22:30:23.282Z,15.50
2018-09-08T22:32:52.270Z,15.50
2018-09-08T22:35:20.764Z,15.40
2018-09-08T22:37:49.403Z,15.40
2018-09-08T22:40:17.998Z,15.40
2018-09-08T22:42:46.559Z,15.40
2018-09-08T22:45:15.694Z,15.40
2018-09-08T22:47:44.402Z,15.40
2018-09-08T22:50:12.967Z,15.40
2018-09-08T22:52:41.602Z,15.30
2018-09-08T22:55:10.572Z,15.30
2018-09-08T22:57:41.045Z,15.30
2018-09-08T23:00:09.860Z,15.30
2018-09-08T23:02:38.730Z,15.30
2018-09-08T23:05:07.471Z,15.30
2018-09-08T23:07:35.994Z,15.30
2018-09-08T23:10:04.801Z,15.30
2018-09-08T23:12:33.697Z,15.30
2018-09-08T23:15:02.079Z,15.30
2018-09-08T23:17:30.563Z,15.30
2018-09-08T23:19:59.148Z,15.20
2018-09-08T23:22:27.924Z,15.20
2018-09-08T23:24:56.455Z,15.20
2018-09-08T23:27:24.973Z,15.20
2018-09-08T23:29:53.674Z,15.20
2018-09-08T23:32:22.157Z,15.10
2018-09-08T23:34:50.659Z,15.10
2018-09-08T23:37:19.632Z,15.10
2018-09-08T23:39:48.139Z,15.10
2018-09-08T23:42:16.678Z,15.00
2018-09-08T23:44:45.128Z,15.10
2018-09-08T23:47:13.681Z,15.00
2018-09-08T23:49:42.294Z,14.90
2018-09-08T23:52:10.891Z,14.80
2018-09-08T23:54:39.410Z,14.80
2018-09-08T23:57:07.880Z,14.70
2018-09-08T23:59:36.369Z,14.70
